Flight Track Log - Related Links

Times and Time Zones

All times are in EDT time to prevent confusion due to time zone crossing. See the SKW4763 flight status page for this flight to view local times or setup timezone preferences in your user account.

Time Position Orientation Groundspeed Altitude Reporting Facility
EDT Latitude Longitude Course Direction KTS MPH feet Rate Location/Type
Mon 11:53:10 PM 40.8178 -112.0039 217° Southwest 202 232 5,100  Level Salt Center
Mon 11:54:23 PM 40.8689 -112.0658 318° Northwest 238 274 8,000 2,270 Climbing Salt Center
Mon 11:55:01 PM 40.8556 -112.1061 246° West 259 298 9,300 2,848 Climbing Salt Center
Mon 11:56:00 PM 40.5448 -112.3017 194° South  Level FlightAware
Mon 11:56:02 PM 40.8014 -112.2017 233° Southwest 271 312 12,700  Level Salt Center
Mon 11:57:00 PM 40.4301 -112.3307 189° South  Level FlightAware
Mon 11:57:03 PM 40.7311 -112.2467 206° Southwest 297 342 15,200  Level Salt Center
Mon 11:58:00 PM 40.3183 -112.3651 217° Southwest  Level FlightAware
Mon 11:58:04 PM 40.6475 -112.2642 189° South 309 356 16,500  Level Salt Center
Mon 11:59:06 PM 40.5550 -112.2947 194° South 340 391 17,700 1,463 Climbing Salt Center
Tue 12:00:07 AM 40.4583 -112.3239 193° South 356 410 19,500 1,377 Climbing Salt Center
Tue 12:01:08 AM 40.3614 -112.3528 193° South 360 414 20,500 1,230 Climbing Salt Center
Tue 12:02:09 AM 40.2708 -112.4053 204° Southwest 356 410 22,000 1,230 Climbing Salt Center
Tue 12:03:10 AM 40.1847 -112.4661 208° Southwest 352 405 23,000 1,279 Climbing Salt Center
Tue 12:04:11 AM 40.0972 -112.5269 208° Southwest 353 406 24,600 1,279 Climbing Salt Center
Tue 12:05:12 AM 40.0125 -112.5861 208° Southwest 346 398 25,600 1,024 Climbing Salt Center
Tue 12:06:14 AM 39.9108 -112.6592 209° Southwest 348 400 26,700 1,033 Climbing Salt Center
Tue 12:07:14 AM 39.8219 -112.7169 207° Southwest 352 405 27,700 793 Climbing Salt Center
Tue 12:08:15 AM 39.7458 -112.7697 208° Southwest 358 412 28,300 541 Climbing Salt Center
Tue 12:09:16 AM 39.6311 -112.8339 203° Southwest 380 437 28,800 488 Climbing Salt Center
Tue 12:10:18 AM 39.5239 -112.8692 194° South 398 458 29,300 439 Climbing Salt Center
Tue 12:11:19 AM 39.4153 -112.9050 194° South 403 464 29,700 541 Climbing Salt Center
Tue 12:12:20 AM 39.3047 -112.9417 194° South 407 468 30,400 885 Climbing Salt Center
Tue 12:13:21 AM 39.1975 -112.9783 195° South 401 461 31,500 689 Climbing Salt Center
Tue 12:14:22 AM 39.0922 -113.0111 194° South 392 451 31,800 246 Climbing Salt Center
Tue 12:15:23 AM 38.9839 -113.0439 193° South 397 457 32,000 98 Climbing Salt Center
Tue 12:16:24 AM 38.8728 -113.0786 194° South 407 468 32,000  Level Salt Center
Tue 12:17:25 AM 38.7583 -113.1167 195° South 420 483 32,000  Level Salt Center
Tue 12:18:26 AM 38.6433 -113.1519 193° South 426 490 32,000  Level Salt Center
Tue 12:19:27 AM 38.5044 -113.1967 194° South 429 494 32,000  Level Salt Center
Tue 12:20:29 AM 38.3864 -113.2350 194° South 436 502 32,000  Level Salt Center
Tue 12:21:30 AM 38.2703 -113.2717 194° South 432 497 32,000  Level Salt Center
Tue 12:22:31 AM 38.1547 -113.3067 193° South 429 494 32,000  Level Salt Center
Tue 12:23:32 AM 38.0417 -113.3431 194° South 425 489 32,000  Level Salt Center
Tue 12:24:33 AM 37.9303 -113.3778 194° South 418 481 32,000  Level Salt Center
Tue 12:25:34 AM 37.8325 -113.4389 206° Southwest 399 459 32,000  Level Salt Center
Tue 12:26:35 AM 37.7428 -113.5114 213° Southwest 387 445 32,000  Level Salt Center
Tue 12:27:36 AM 37.6508 -113.5842 212° Southwest 390 449 32,000  Level Salt Center
Tue 12:28:37 AM 37.5397 -113.6728 212° Southwest 395 455 32,000  Level Salt Center
Tue 12:29:38 AM 37.4453 -113.7464 212° Southwest 399 459 32,000  Level Salt Center
Tue 12:30:39 AM 37.3497 -113.8228 212° Southwest 406 467 32,000  Level Salt Center
Tue 12:31:40 AM 37.2542 -113.8981 212° Southwest 406 467 32,000  Level Salt Center
Tue 12:32:41 AM 37.1597 -113.9728 212° Southwest 404 465 32,000  Level Salt Center
Tue 12:33:31 AM 37.0861 -114.0300 212° Southwest 408 470 32,000  Level Los Center
Tue 12:34:32 AM 36.9875 -114.1033 211° Southwest 410 472 32,000  Level Los Center
Tue 12:35:33 AM 36.8889 -114.1786 211° Southwest 413 475 32,000  Level Los Center
Tue 12:36:35 AM 36.7725 -114.2700 212° Southwest 410 472 32,000  Level Los Center
Tue 12:37:36 AM 36.6742 -114.3453 212° Southwest 413 475 32,000  Level Los Center
Tue 12:38:37 AM 36.5756 -114.4214 212° Southwest 415 478 32,000  Level Los Center
Tue 12:39:38 AM 36.4764 -114.4975 212° Southwest 417 480 32,000  Level Los Center
Tue 12:40:39 AM 36.3789 -114.5733 212° Southwest 413 475 32,000  Level Los Center
Tue 12:41:40 AM 36.2781 -114.6500 212° Southwest 419 482 32,000  Level Los Center
Tue 12:42:42 AM 36.1758 -114.7269 211° Southwest 424 488 32,000  Level Los Center
Tue 12:43:43 AM 36.0725 -114.8050 211° Southwest 430 495 32,000  Level Los Center
Tue 12:44:44 AM 35.9658 -114.8756 208° Southwest 433 498 32,000  Level Los Center
Tue 12:45:45 AM 35.8472 -114.9181 196° South 440 506 32,000  Level Los Center
Tue 12:46:46 AM 35.7281 -114.9608 196° South 443 510 32,000  Level Los Center
Tue 12:47:47 AM 35.6097 -115.0031 196° South 441 507 32,000  Level Los Center
Tue 12:48:48 AM 35.4908 -115.0456 196° South 442 509 32,000  Level Los Center
Tue 12:49:49 AM 35.3728 -115.0889 197° South 441 507 32,000  Level Los Center
Tue 12:50:51 AM 35.2308 -115.1406 197° South 442 509 32,000 -537 Level Los Center
Tue 12:51:52 AM 35.1125 -115.1822 196° South 443 510 30,900 -1,033 Descending Los Center
Tue 12:52:53 AM 35.0025 -115.2317 200° South 429 494 29,900 -984 Descending Los Center
Tue 12:53:54 AM 34.8947 -115.2792 200° South 415 478 28,900 -984 Descending Los Center
Tue 12:54:55 AM 34.7864 -115.3267 200° South 414 476 27,900 -984 Descending Los Center
Tue 12:55:56 AM 34.6758 -115.3756 200° South 419 482 26,900 -984 Descending Los Center
Tue 12:56:57 AM 34.5694 -115.4208 199° South 416 479 25,900 -1,279 Descending Los Center
Tue 12:57:58 AM 34.4597 -115.4700 200° South 421 484 24,300 -1,967 Descending Los Center
Tue 12:58:59 AM 34.3450 -115.5194 200° South 434 499 21,900 -2,410 Descending Los Center
Tue 01:00:00 AM 34.2575 -115.6056 219° Southwest 408 470 19,400 -2,537 Descending Los Center
Tue 01:01:02 AM 34.1775 -115.6944 223° Southwest 394 453 16,700 -2,585 Descending Los Center
Tue 01:02:03 AM 34.0817 -115.7933 221° Southwest 380 437 14,100 -2,115 Descending Los Center
Tue 01:03:04 AM 34.0006 -115.8575 213° Southwest 356 410 12,400 -1,525 Descending Los Center
Tue 01:04:05 AM 33.9306 -115.9161 215° Southwest 319 367 11,000 -1,377 Descending Los Center
Tue 01:05:06 AM 33.8886 -115.9869 235° Southwest 285 328 9,600 -1,475 Descending Los Center
Tue 01:06:07 AM 33.8650 -116.0700 251° West 273 314 8,000 -1,574 Descending Los Center
Tue 01:07:08 AM 33.8411 -116.1494 250° West 263 303 6,400 -1,082 Descending Los Center
Tue 01:08:09 AM 33.8206 -116.2211 251° West 259 298 5,800 -1,019 Descending Los Center
Tue 01:10:34 AM 33.7667 -116.3833 248° West 196 226 2,900 -1,112 Descending Southern TRACON
Tue 01:11:34 AM 33.7667 -116.4333 270° West 179 206 2,000 -900 Descending Southern TRACON

Login

Don't have an account? Register now (free) for customized features, flight alerts, and more!